sensor_id;sensor_type;location;lat;lon;timestamp;temperature;humidity
6690;DHT22;3382;51.576;8.076;2023-02-28T00:00:01;2.20;99.90
6690;DHT22;3382;51.576;8.076;2023-02-28T00:02:41;2.20;99.90
6690;DHT22;3382;51.576;8.076;2023-02-28T00:05:09;2.10;99.90
6690;DHT22;3382;51.576;8.076;2023-02-28T00:07:35;2.10;99.90
6690;DHT22;3382;51.576;8.076;2023-02-28T00:10:01;2.20;99.90
6690;DHT22;3382;51.576;8.076;2023-02-28T00:12:27;2.70;99.90
6690;DHT22;3382;51.576;8.076;2023-02-28T00:14:53;2.10;99.90
6690;DHT22;3382;51.576;8.076;2023-02-28T00:17:19;2.10;99.90
6690;DHT22;3382;51.576;8.076;2023-02-28T00:19:50;2.10;99.90
6690;DHT22;3382;51.576;8.076;2023-02-28T00:22:16;2.10;99.90
6690;DHT22;3382;51.576;8.076;2023-02-28T00:24:42;2.10;99.90
6690;DHT22;3382;51.576;8.076;2023-02-28T00:27:08;2.10;99.90
6690;DHT22;3382;51.576;8.076;2023-02-28T00:29:34;2.10;99.90
6690;DHT22;3382;51.576;8.076;2023-02-28T00:31:59;2.00;99.90
6690;DHT22;3382;51.576;8.076;2023-02-28T00:34:25;2.00;99.90
6690;DHT22;3382;51.576;8.076;2023-02-28T00:36:51;2.00;99.90
6690;DHT22;3382;51.576;8.076;2023-02-28T00:39:16;1.90;99.90
6690;DHT22;3382;51.576;8.076;2023-02-28T00:41:43;1.90;99.90
6690;DHT22;3382;51.576;8.076;2023-02-28T00:44:09;1.80;99.90
6690;DHT22;3382;51.576;8.076;2023-02-28T00:46:34;1.80;99.90
6690;DHT22;3382;51.576;8.076;2023-02-28T00:49:00;1.80;99.90
6690;DHT22;3382;51.576;8.076;2023-02-28T00:51:26;1.70;99.90
6690;DHT22;3382;51.576;8.076;2023-02-28T00:53:51;1.70;99.90
6690;DHT22;3382;51.576;8.076;2023-02-28T00:56:17;1.60;99.90
6690;DHT22;3382;51.576;8.076;2023-02-28T00:58:43;1.50;99.90
6690;DHT22;3382;51.576;8.076;2023-02-28T01:01:08;1.50;99.90
6690;DHT22;3382;51.576;8.076;2023-02-28T01:03:34;1.40;99.90
6690;DHT22;3382;51.576;8.076;2023-02-28T01:06:00;1.40;99.90
6690;DHT22;3382;51.576;8.076;2023-02-28T01:08:25;2.00;99.90
6690;DHT22;3382;51.576;8.076;2023-02-28T01:10:52;1.40;99.90
6690;DHT22;3382;51.576;8.076;2023-02-28T01:13:18;1.50;99.90
6690;DHT22;3382;51.576;8.076;2023-02-28T01:15:53;1.50;99.90
6690;DHT22;3382;51.576;8.076;2023-02-28T01:18:21;1.40;99.90
6690;DHT22;3382;51.576;8.076;2023-02-28T01:20:47;1.40;99.90
6690;DHT22;3382;51.576;8.076;2023-02-28T01:23:13;1.30;99.90
6690;DHT22;3382;51.576;8.076;2023-02-28T01:25:38;1.30;99.90
6690;DHT22;3382;51.576;8.076;2023-02-28T01:28:05;1.30;99.90
6690;DHT22;3382;51.576;8.076;2023-02-28T01:30:31;1.30;99.90
6690;DHT22;3382;51.576;8.076;2023-02-28T01:32:57;1.70;99.90
6690;DHT22;3382;51.576;8.076;2023-02-28T01:35:23;1.20;99.90
6690;DHT22;3382;51.576;8.076;2023-02-28T01:37:48;1.70;99.90
6690;DHT22;3382;51.576;8.076;2023-02-28T01:40:14;1.10;99.90
6690;DHT22;3382;51.576;8.076;2023-02-28T01:42:40;1.10;99.90
6690;DHT22;3382;51.576;8.076;2023-02-28T01:45:25;1.00;99.90
6690;DHT22;3382;51.576;8.076;2023-02-28T01:47:54;1.00;99.90
6690;DHT22;3382;51.576;8.076;2023-02-28T01:50:24;1.10;99.90
6690;DHT22;3382;51.576;8.076;2023-02-28T01:52:52;0.90;99.90
6690;DHT22;3382;51.576;8.076;2023-02-28T01:55:20;0.90;99.90
6690;DHT22;3382;51.576;8.076;2023-02-28T01:57:52;0.80;99.90
6690;DHT22;3382;51.576;8.076;2023-02-28T02:00:22;0.80;99.90
6690;DHT22;3382;51.576;8.076;2023-02-28T02:02:51;0.70;99.90
6690;DHT22;3382;51.576;8.076;2023-02-28T02:05:24;0.70;99.90
6690;DHT22;3382;51.576;8.076;2023-02-28T02:07:54;0.70;99.90
6690;DHT22;3382;51.576;8.076;2023-02-28T02:10:24;0.70;99.90
6690;DHT22;3382;51.576;8.076;2023-02-28T02:13:11;0.70;99.90
6690;DHT22;3382;51.576;8.076;2023-02-28T02:16:15;0.70;99.90
6690;DHT22;3382;51.576;8.076;2023-02-28T02:19:25;0.60;99.90
6690;DHT22;3382;51.576;8.076;2023-02-28T02:33:25;0.50;99.90
6690;DHT22;3382;51.576;8.076;2023-02-28T02:38:37;0.50;99.90
6690;DHT22;3382;51.576;8.076;2023-02-28T02:41:25;0.40;99.90
6690;DHT22;3382;51.576;8.076;2023-02-28T02:43:58;1.00;99.90
6690;DHT22;3382;51.576;8.076;2023-02-28T02:46:33;0.40;99.90
6690;DHT22;3382;51.576;8.076;2023-02-28T02:49:03;0.80;99.90
6690;DHT22;3382;51.576;8.076;2023-02-28T02:51:31;0.30;99.90
6690;DHT22;3382;51.576;8.076;2023-02-28T02:54:43;0.30;99.90
6690;DHT22;3382;51.576;8.076;2023-02-28T02:56:49;0.30;99.90
6690;DHT22;3382;51.576;8.076;2023-02-28T02:59:19;0.30;99.90
6690;DHT22;3382;51.576;8.076;2023-02-28T03:01:53;0.30;99.90
6690;DHT22;3382;51.576;8.076;2023-02-28T03:04:23;0.20;99.90
6690;DHT22;3382;51.576;8.076;2023-02-28T03:06:51;0.20;99.90
6690;DHT22;3382;51.576;8.076;2023-02-28T03:09:21;0.10;99.90
6690;DHT22;3382;51.576;8.076;2023-02-28T03:11:47;0.10;99.90
6690;DHT22;3382;51.576;8.076;2023-02-28T03:17:25;0.10;99.90
6690;DHT22;3382;51.576;8.076;2023-02-28T03:30:20;-0.10;99.90
6690;DHT22;3382;51.576;8.076;2023-02-28T03:32:57;0.00;99.90
6690;DHT22;3382;51.576;8.076;2023-02-28T03:35:30;-0.20;99.90
6690;DHT22;3382;51.576;8.076;2023-02-28T03:38:06;0.50;99.90
6690;DHT22;3382;51.576;8.076;2023-02-28T03:40:36;-0.10;99.90
6690;DHT22;3382;51.576;8.076;2023-02-28T03:43:09;-0.10;99.90
6690;DHT22;3382;51.576;8.076;2023-02-28T03:45:37;-0.20;99.90
6690;DHT22;3382;51.576;8.076;2023-02-28T03:50:48;-0.20;99.90
6690;DHT22;3382;51.576;8.076;2023-02-28T03:53:22;-0.20;99.90
6690;DHT22;3382;51.576;8.076;2023-02-28T03:58:31;-0.40;99.90
6690;DHT22;3382;51.576;8.076;2023-02-28T04:03:45;-0.20;99.90
6690;DHT22;3382;51.576;8.076;2023-02-28T04:06:18;-0.30;99.90
6690;DHT22;3382;51.576;8.076;2023-02-28T04:08:44;-0.30;99.90
6690;DHT22;3382;51.576;8.076;2023-02-28T04:13:44;-0.30;99.90
6690;DHT22;3382;51.576;8.076;2023-02-28T04:16:10;-0.40;99.90
6690;DHT22;3382;51.576;8.076;2023-02-28T04:18:40;-0.40;99.90
6690;DHT22;3382;51.576;8.076;2023-02-28T04:21:09;-0.40;99.90
6690;DHT22;3382;51.576;8.076;2023-02-28T04:23:35;-0.50;99.90
6690;DHT22;3382;51.576;8.076;2023-02-28T04:26:01;-0.50;99.90
6690;DHT22;3382;51.576;8.076;2023-02-28T04:28:26;-0.40;99.90
6690;DHT22;3382;51.576;8.076;2023-02-28T04:31:00;-0.40;99.90
6690;DHT22;3382;51.576;8.076;2023-02-28T04:33:26;-0.50;99.90
6690;DHT22;3382;51.576;8.076;2023-02-28T04:35:59;-0.40;99.90
6690;DHT22;3382;51.576;8.076;2023-02-28T04:38:25;-0.50;99.90
6690;DHT22;3382;51.576;8.076;2023-02-28T04:40:51;-0.50;99.90
6690;DHT22;3382;51.576;8.076;2023-02-28T04:43:16;-0.50;99.90
6690;DHT22;3382;51.576;8.076;2023-02-28T04:45:42;-0.50;99.90
6690;DHT22;3382;51.576;8.076;2023-02-28T04:48:07;-0.50;99.90
6690;DHT22;3382;51.576;8.076;2023-02-28T04:50:33;-0.10;99.90
6690;DHT22;3382;51.576;8.076;2023-02-28T04:52:58;-0.60;99.90
6690;DHT22;3382;51.576;8.076;2023-02-28T04:55:24;-0.70;99.90
6690;DHT22;3382;51.576;8.076;2023-02-28T04:57:50;-0.70;99.90
6690;DHT22;3382;51.576;8.076;2023-02-28T05:00:15;-0.70;99.90
6690;DHT22;3382;51.576;8.076;2023-02-28T05:02:42;-0.70;99.90
6690;DHT22;3382;51.576;8.076;2023-02-28T05:05:08;-0.70;99.90
6690;DHT22;3382;51.576;8.076;2023-02-28T05:07:33;-0.60;99.90
6690;DHT22;3382;51.576;8.076;2023-02-28T05:09:59;-0.60;99.90
6690;DHT22;3382;51.576;8.076;2023-02-28T05:12:25;0.00;99.90
6690;DHT22;3382;51.576;8.076;2023-02-28T05:14:50;-0.70;99.90
6690;DHT22;3382;51.576;8.076;2023-02-28T05:17:16;-0.70;99.90
6690;DHT22;3382;51.576;8.076;2023-02-28T05:19:42;-0.70;99.90
6690;DHT22;3382;51.576;8.076;2023-02-28T05:22:13;-0.10;99.90
6690;DHT22;3382;51.576;8.076;2023-02-28T05:24:40;-0.60;99.90
6690;DHT22;3382;51.576;8.076;2023-02-28T05:27:08;-0.60;99.90
6690;DHT22;3382;51.576;8.076;2023-02-28T05:29:34;-0.60;99.90
6690;DHT22;3382;51.576;8.076;2023-02-28T05:32:12;-0.60;99.90
6690;DHT22;3382;51.576;8.076;2023-02-28T05:34:38;-0.50;99.90
6690;DHT22;3382;51.576;8.076;2023-02-28T05:37:05;0.10;99.90
6690;DHT22;3382;51.576;8.076;2023-02-28T05:39:32;0.00;99.90
6690;DHT22;3382;51.576;8.076;2023-02-28T05:41:58;-0.50;99.90
6690;DHT22;3382;51.576;8.076;2023-02-28T05:44:24;0.10;99.90
6690;DHT22;3382;51.576;8.076;2023-02-28T05:46:50;-0.40;99.90
6690;DHT22;3382;51.576;8.076;2023-02-28T05:49:15;-0.40;99.90
6690;DHT22;3382;51.576;8.076;2023-02-28T05:51:41;-0.40;99.90
6690;DHT22;3382;51.576;8.076;2023-02-28T05:54:07;-0.10;99.90
6690;DHT22;3382;51.576;8.076;2023-02-28T05:56:33;0.10;99.90
6690;DHT22;3382;51.576;8.076;2023-02-28T05:59:01;0.20;99.90
6690;DHT22;3382;51.576;8.076;2023-02-28T06:01:33;0.00;99.90
6690;DHT22;3382;51.576;8.076;2023-02-28T06:04:00;-0.10;99.90
6690;DHT22;3382;51.576;8.076;2023-02-28T06:06:26;-0.10;99.90
6690;DHT22;3382;51.576;8.076;2023-02-28T06:08:52;0.20;99.90
6690;DHT22;3382;51.576;8.076;2023-02-28T06:11:18;0.00;99.90
6690;DHT22;3382;51.576;8.076;2023-02-28T06:13:45;0.20;99.90
6690;DHT22;3382;51.576;8.076;2023-02-28T06:16:11;0.10;99.90
6690;DHT22;3382;51.576;8.076;2023-02-28T06:18:37;0.00;99.90
6690;DHT22;3382;51.576;8.076;2023-02-28T06:21:03;-0.20;99.90
6690;DHT22;3382;51.576;8.076;2023-02-28T06:23:28;-0.30;99.90
6690;DHT22;3382;51.576;8.076;2023-02-28T06:25:54;-0.30;99.90
6690;DHT22;3382;51.576;8.076;2023-02-28T06:28:24;-0.40;99.90
6690;DHT22;3382;51.576;8.076;2023-02-28T06:30:51;-0.30;99.90
6690;DHT22;3382;51.576;8.076;2023-02-28T06:33:16;2.80;99.90
6690;DHT22;3382;51.576;8.076;2023-02-28T06:35:47;3.70;99.90
6690;DHT22;3382;51.576;8.076;2023-02-28T06:38:13;1.90;99.90
6690;DHT22;3382;51.576;8.076;2023-02-28T06:40:38;1.20;99.90
6690;DHT22;3382;51.576;8.076;2023-02-28T06:43:04;1.40;99.90
6690;DHT22;3382;51.576;8.076;2023-02-28T06:45:30;2.70;99.90
6690;DHT22;3382;51.576;8.076;2023-02-28T06:47:55;2.90;99.90
6690;DHT22;3382;51.576;8.076;2023-02-28T06:50:21;1.90;99.90
6690;DHT22;3382;51.576;8.076;2023-02-28T06:52:47;1.10;99.90
6690;DHT22;3382;51.576;8.076;2023-02-28T06:55:12;1.30;99.90
6690;DHT22;3382;51.576;8.076;2023-02-28T06:57:38;0.90;99.90
6690;DHT22;3382;51.576;8.076;2023-02-28T07:00:08;0.30;99.90
6690;DHT22;3382;51.576;8.076;2023-02-28T07:02:37;0.20;99.90
6690;DHT22;3382;51.576;8.076;2023-02-28T07:05:04;0.20;99.90
6690;DHT22;3382;51.576;8.076;2023-02-28T07:07:30;0.20;99.90
6690;DHT22;3382;51.576;8.076;2023-02-28T07:09:56;0.10;99.90
6690;DHT22;3382;51.576;8.076;2023-02-28T07:12:22;0.20;99.90
6690;DHT22;3382;51.576;8.076;2023-02-28T07:14:47;0.30;99.90
6690;DHT22;3382;51.576;8.076;2023-02-28T07:17:13;0.30;99.90
6690;DHT22;3382;51.576;8.076;2023-02-28T07:19:39;0.90;99.90
6690;DHT22;3382;51.576;8.076;2023-02-28T07:22:05;0.20;99.90
6690;DHT22;3382;51.576;8.076;2023-02-28T07:24:30;0.10;99.90
6690;DHT22;3382;51.576;8.076;2023-02-28T07:26:56;0.10;99.90
6690;DHT22;3382;51.576;8.076;2023-02-28T07:29:22;0.10;99.90
6690;DHT22;3382;51.576;8.076;2023-02-28T07:31:48;0.10;99.90
6690;DHT22;3382;51.576;8.076;2023-02-28T07:34:15;0.10;99.90
6690;DHT22;3382;51.576;8.076;2023-02-28T07:36:41;0.20;99.90
6690;DHT22;3382;51.576;8.076;2023-02-28T07:39:06;0.50;99.90
6690;DHT22;3382;51.576;8.076;2023-02-28T07:41:34;0.60;99.90
6690;DHT22;3382;51.576;8.076;2023-02-28T07:44:03;1.10;99.90
6690;DHT22;3382;51.576;8.076;2023-02-28T07:46:28;0.70;99.90
6690;DHT22;3382;51.576;8.076;2023-02-28T07:49:00;0.90;99.90
6690;DHT22;3382;51.576;8.076;2023-02-28T07:51:28;1.90;99.90
6690;DHT22;3382;51.576;8.076;2023-02-28T07:53:54;2.00;99.90
6690;DHT22;3382;51.576;8.076;2023-02-28T07:56:20;2.00;99.90
6690;DHT22;3382;51.576;8.076;2023-02-28T07:58:45;2.10;99.90
6690;DHT22;3382;51.576;8.076;2023-02-28T08:01:11;2.40;99.90
6690;DHT22;3382;51.576;8.076;2023-02-28T08:03:38;2.70;99.90
6690;DHT22;3382;51.576;8.076;2023-02-28T08:06:05;3.00;99.90
6690;DHT22;3382;51.576;8.076;2023-02-28T08:08:31;3.20;99.90
6690;DHT22;3382;51.576;8.076;2023-02-28T08:11:01;3.40;99.90
6690;DHT22;3382;51.576;8.076;2023-02-28T08:13:29;3.40;99.90
6690;DHT22;3382;51.576;8.076;2023-02-28T08:15:55;3.50;99.90
6690;DHT22;3382;51.576;8.076;2023-02-28T08:18:21;3.60;99.90
6690;DHT22;3382;51.576;8.076;2023-02-28T08:20:47;3.80;99.90
6690;DHT22;3382;51.576;8.076;2023-02-28T08:23:13;4.00;99.90
6690;DHT22;3382;51.576;8.076;2023-02-28T08:25:39;3.90;99.90
6690;DHT22;3382;51.576;8.076;2023-02-28T08:28:05;3.90;99.90
6690;DHT22;3382;51.576;8.076;2023-02-28T08:30:30;3.90;99.90
6690;DHT22;3382;51.576;8.076;2023-02-28T08:32:56;3.80;99.90
6690;DHT22;3382;51.576;8.076;2023-02-28T08:35:22;3.70;99.90
6690;DHT22;3382;51.576;8.076;2023-02-28T08:37:48;3.80;99.90
6690;DHT22;3382;51.576;8.076;2023-02-28T08:40:14;3.70;99.90
6690;DHT22;3382;51.576;8.076;2023-02-28T08:42:47;3.70;99.90
6690;DHT22;3382;51.576;8.076;2023-02-28T08:45:14;3.90;99.90
6690;DHT22;3382;51.576;8.076;2023-02-28T08:47:40;4.10;99.90
6690;DHT22;3382;51.576;8.076;2023-02-28T08:50:07;4.00;99.90
6690;DHT22;3382;51.576;8.076;2023-02-28T08:52:33;3.80;99.90
6690;DHT22;3382;51.576;8.076;2023-02-28T08:54:58;3.80;99.90
6690;DHT22;3382;51.576;8.076;2023-02-28T08:57:24;3.80;99.90
6690;DHT22;3382;51.576;8.076;2023-02-28T08:59:52;3.80;99.90
6690;DHT22;3382;51.576;8.076;2023-02-28T09:02:17;4.00;99.90
6690;DHT22;3382;51.576;8.076;2023-02-28T09:04:43;3.90;99.90
6690;DHT22;3382;51.576;8.076;2023-02-28T09:07:11;3.90;99.90
6690;DHT22;3382;51.576;8.076;2023-02-28T09:09:36;3.90;99.90
6690;DHT22;3382;51.576;8.076;2023-02-28T09:12:02;3.90;99.90
6690;DHT22;3382;51.576;8.076;2023-02-28T09:14:28;3.90;99.90
6690;DHT22;3382;51.576;8.076;2023-02-28T09:16:54;4.00;99.90
6690;DHT22;3382;51.576;8.076;2023-02-28T09:19:20;4.00;99.90
6690;DHT22;3382;51.576;8.076;2023-02-28T09:21:45;3.90;99.90
6690;DHT22;3382;51.576;8.076;2023-02-28T09:24:11;4.00;99.90
6690;DHT22;3382;51.576;8.076;2023-02-28T09:26:39;4.10;99.90
6690;DHT22;3382;51.576;8.076;2023-02-28T09:29:05;4.10;99.90
6690;DHT22;3382;51.576;8.076;2023-02-28T09:31:32;4.30;99.90
6690;DHT22;3382;51.576;8.076;2023-02-28T09:33:58;4.50;99.90
6690;DHT22;3382;51.576;8.076;2023-02-28T09:36:25;4.90;99.90
6690;DHT22;3382;51.576;8.076;2023-02-28T09:38:51;5.10;99.90
6690;DHT22;3382;51.576;8.076;2023-02-28T09:41:42;5.00;99.90
6690;DHT22;3382;51.576;8.076;2023-02-28T09:44:51;5.10;99.90
6690;DHT22;3382;51.576;8.076;2023-02-28T09:47:35;5.50;99.90
6690;DHT22;3382;51.576;8.076;2023-02-28T09:50:13;5.60;99.90
6690;DHT22;3382;51.576;8.076;2023-02-28T09:52:41;5.60;99.90
6690;DHT22;3382;51.576;8.076;2023-02-28T09:56:03;5.70;99.90
6690;DHT22;3382;51.576;8.076;2023-02-28T09:58:28;5.60;99.90
6690;DHT22;3382;51.576;8.076;2023-02-28T10:06:21;5.50;99.90
6690;DHT22;3382;51.576;8.076;2023-02-28T10:08:56;5.80;99.90
6690;DHT22;3382;51.576;8.076;2023-02-28T10:11:24;6.00;99.90
6690;DHT22;3382;51.576;8.076;2023-02-28T10:16:46;6.20;99.90
6690;DHT22;3382;51.576;8.076;2023-02-28T10:19:20;6.60;99.90
6690;DHT22;3382;51.576;8.076;2023-02-28T10:24:47;6.20;99.90
6690;DHT22;3382;51.576;8.076;2023-02-28T10:27:23;6.20;99.90
6690;DHT22;3382;51.576;8.076;2023-02-28T10:29:54;6.20;99.90
6690;DHT22;3382;51.576;8.076;2023-02-28T10:32:34;6.10;99.90
6690;DHT22;3382;51.576;8.076;2023-02-28T10:37:32;5.90;99.90
6690;DHT22;3382;51.576;8.076;2023-02-28T10:40:07;5.80;99.90
6690;DHT22;3382;51.576;8.076;2023-02-28T10:43:05;5.80;99.90
6690;DHT22;3382;51.576;8.076;2023-02-28T10:45:33;5.80;99.90
6690;DHT22;3382;51.576;8.076;2023-02-28T10:56:18;5.60;99.90
6690;DHT22;3382;51.576;8.076;2023-02-28T11:01:20;5.70;99.90
6690;DHT22;3382;51.576;8.076;2023-02-28T11:03:47;5.80;99.90
6690;DHT22;3382;51.576;8.076;2023-02-28T11:06:30;5.90;99.90
6690;DHT22;3382;51.576;8.076;2023-02-28T11:08:59;6.00;99.90
6690;DHT22;3382;51.576;8.076;2023-02-28T11:11:28;6.00;99.90
6690;DHT22;3382;51.576;8.076;2023-02-28T11:13:57;5.90;99.90
6690;DHT22;3382;51.576;8.076;2023-02-28T11:16:35;5.90;99.90
6690;DHT22;3382;51.576;8.076;2023-02-28T11:19:03;6.00;99.90
6690;DHT22;3382;51.576;8.076;2023-02-28T11:21:34;5.80;99.90
6690;DHT22;3382;51.576;8.076;2023-02-28T11:24:32;5.80;99.90
6690;DHT22;3382;51.576;8.076;2023-02-28T11:26:59;6.00;99.90
6690;DHT22;3382;51.576;8.076;2023-02-28T11:29:28;6.20;99.90
6690;DHT22;3382;51.576;8.076;2023-02-28T11:34:32;6.10;99.90
6690;DHT22;3382;51.576;8.076;2023-02-28T11:36:59;6.00;99.90
6690;DHT22;3382;51.576;8.076;2023-02-28T11:39:27;5.90;99.90
6690;DHT22;3382;51.576;8.076;2023-02-28T11:42:14;6.00;99.90
6690;DHT22;3382;51.576;8.076;2023-02-28T11:56:14;5.80;99.90
6690;DHT22;3382;51.576;8.076;2023-02-28T12:09:53;5.60;99.90
6690;DHT22;3382;51.576;8.076;2023-02-28T12:15:32;5.60;99.90
6690;DHT22;3382;51.576;8.076;2023-02-28T12:23:45;5.60;99.90
6690;DHT22;3382;51.576;8.076;2023-02-28T12:28:50;5.70;99.90
6690;DHT22;3382;51.576;8.076;2023-02-28T12:32:12;5.80;99.90
6690;DHT22;3382;51.576;8.076;2023-02-28T12:34:38;5.80;99.90
6690;DHT22;3382;51.576;8.076;2023-02-28T12:37:09;5.90;99.90
6690;DHT22;3382;51.576;8.076;2023-02-28T12:39:40;6.00;99.90
6690;DHT22;3382;51.576;8.076;2023-02-28T12:42:11;6.00;99.90
6690;DHT22;3382;51.576;8.076;2023-02-28T12:45:05;6.00;99.90
6690;DHT22;3382;51.576;8.076;2023-02-28T12:47:34;6.10;99.90
6690;DHT22;3382;51.576;8.076;2023-02-28T12:50:04;6.60;99.90
6690;DHT22;3382;51.576;8.076;2023-02-28T12:53:20;6.10;99.90
6690;DHT22;3382;51.576;8.076;2023-02-28T12:55:48;6.10;99.90
6690;DHT22;3382;51.576;8.076;2023-02-28T12:58:29;6.20;99.90
6690;DHT22;3382;51.576;8.076;2023-02-28T13:09:21;6.10;99.90
6690;DHT22;3382;51.576;8.076;2023-02-28T13:11:51;6.10;99.90
6690;DHT22;3382;51.576;8.076;2023-02-28T13:16:59;6.00;99.90
6690;DHT22;3382;51.576;8.076;2023-02-28T13:19:28;6.00;99.90
6690;DHT22;3382;51.576;8.076;2023-02-28T13:21:55;6.00;99.90
6690;DHT22;3382;51.576;8.076;2023-02-28T13:24:42;6.00;99.90
6690;DHT22;3382;51.576;8.076;2023-02-28T13:29:39;5.90;99.90
6690;DHT22;3382;51.576;8.076;2023-02-28T13:35:34;6.10;99.90
6690;DHT22;3382;51.576;8.076;2023-02-28T13:42:47;6.00;99.90
6690;DHT22;3382;51.576;8.076;2023-02-28T13:45:23;6.20;99.90
6690;DHT22;3382;51.576;8.076;2023-02-28T13:50:37;6.00;99.90
6690;DHT22;3382;51.576;8.076;2023-02-28T14:04:06;6.00;99.90
6690;DHT22;3382;51.576;8.076;2023-02-28T14:06:37;6.10;99.90
6690;DHT22;3382;51.576;8.076;2023-02-28T14:09:17;6.20;99.90
6690;DHT22;3382;51.576;8.076;2023-02-28T14:11:44;6.20;99.90
6690;DHT22;3382;51.576;8.076;2023-02-28T14:17:00;6.00;99.90
6690;DHT22;3382;51.576;8.076;2023-02-28T14:19:29;6.10;99.90
6690;DHT22;3382;51.576;8.076;2023-02-28T14:22:08;6.10;99.90
6690;DHT22;3382;51.576;8.076;2023-02-28T14:32:41;6.20;99.90
6690;DHT22;3382;51.576;8.076;2023-02-28T14:35:35;6.20;99.90
6690;DHT22;3382;51.576;8.076;2023-02-28T14:38:05;6.20;99.90
6690;DHT22;3382;51.576;8.076;2023-02-28T14:40:34;6.30;99.90
6690;DHT22;3382;51.576;8.076;2023-02-28T14:43:05;6.20;99.90
6690;DHT22;3382;51.576;8.076;2023-02-28T14:45:33;6.30;99.90
6690;DHT22;3382;51.576;8.076;2023-02-28T14:48:01;6.10;99.90
6690;DHT22;3382;51.576;8.076;2023-02-28T14:50:35;6.10;99.90
6690;DHT22;3382;51.576;8.076;2023-02-28T14:53:02;6.20;99.90
6690;DHT22;3382;51.576;8.076;2023-02-28T14:55:31;6.50;99.90
6690;DHT22;3382;51.576;8.076;2023-02-28T14:57:59;6.70;99.90
6690;DHT22;3382;51.576;8.076;2023-02-28T15:00:30;6.50;99.90
6690;DHT22;3382;51.576;8.076;2023-02-28T15:02:58;6.30;99.90
6690;DHT22;3382;51.576;8.076;2023-02-28T15:05:31;6.20;99.90
6690;DHT22;3382;51.576;8.076;2023-02-28T15:10:32;6.20;99.90
6690;DHT22;3382;51.576;8.076;2023-02-28T15:13:05;6.20;99.90
6690;DHT22;3382;51.576;8.076;2023-02-28T15:15:59;6.20;99.90
6690;DHT22;3382;51.576;8.076;2023-02-28T15:20:57;6.20;99.90
6690;DHT22;3382;51.576;8.076;2023-02-28T15:23:24;6.30;99.90
6690;DHT22;3382;51.576;8.076;2023-02-28T15:25:51;6.40;99.90
6690;DHT22;3382;51.576;8.076;2023-02-28T15:28:20;6.30;99.90
6690;DHT22;3382;51.576;8.076;2023-02-28T15:33:26;6.70;99.90
6690;DHT22;3382;51.576;8.076;2023-02-28T15:36:03;6.40;99.90
6690;DHT22;3382;51.576;8.076;2023-02-28T15:38:29;6.20;99.90
6690;DHT22;3382;51.576;8.076;2023-02-28T15:40:57;6.20;99.90
6690;DHT22;3382;51.576;8.076;2023-02-28T15:43:24;6.20;99.90
6690;DHT22;3382;51.576;8.076;2023-02-28T15:46:11;6.00;99.90
6690;DHT22;3382;51.576;8.076;2023-02-28T15:48:57;6.00;99.90
6690;DHT22;3382;51.576;8.076;2023-02-28T15:51:33;6.00;99.90
6690;DHT22;3382;51.576;8.076;2023-02-28T15:54:05;6.10;99.90
6690;DHT22;3382;51.576;8.076;2023-02-28T15:56:48;6.10;99.90
6690;DHT22;3382;51.576;8.076;2023-02-28T15:59:22;6.10;99.90
6690;DHT22;3382;51.576;8.076;2023-02-28T16:02:20;6.00;99.90
6690;DHT22;3382;51.576;8.076;2023-02-28T16:07:26;6.00;99.90
6690;DHT22;3382;51.576;8.076;2023-02-28T16:09:52;6.30;99.90
6690;DHT22;3382;51.576;8.076;2023-02-28T16:12:20;6.80;99.90
6690;DHT22;3382;51.576;8.076;2023-02-28T16:14:47;6.60;99.90
6690;DHT22;3382;51.576;8.076;2023-02-28T16:17:21;6.50;99.90
6690;DHT22;3382;51.576;8.076;2023-02-28T16:19:47;6.30;99.90
6690;DHT22;3382;51.576;8.076;2023-02-28T16:22:13;6.20;99.90
6690;DHT22;3382;51.576;8.076;2023-02-28T16:24:38;6.10;99.90
6690;DHT22;3382;51.576;8.076;2023-02-28T16:27:05;6.00;99.90
6690;DHT22;3382;51.576;8.076;2023-02-28T16:29:34;6.00;99.90
6690;DHT22;3382;51.576;8.076;2023-02-28T16:32:00;5.90;99.90
6690;DHT22;3382;51.576;8.076;2023-02-28T16:34:26;6.00;99.90
6690;DHT22;3382;51.576;8.076;2023-02-28T16:36:52;6.00;99.90
6690;DHT22;3382;51.576;8.076;2023-02-28T16:39:18;6.10;99.90
6690;DHT22;3382;51.576;8.076;2023-02-28T16:41:47;6.00;99.90
6690;DHT22;3382;51.576;8.076;2023-02-28T16:44:34;6.10;99.90
6690;DHT22;3382;51.576;8.076;2023-02-28T16:47:01;6.40;99.90
6690;DHT22;3382;51.576;8.076;2023-02-28T16:49:27;6.70;99.90
6690;DHT22;3382;51.576;8.076;2023-02-28T16:51:52;6.10;99.90
6690;DHT22;3382;51.576;8.076;2023-02-28T16:54:18;6.00;99.90
6690;DHT22;3382;51.576;8.076;2023-02-28T16:56:45;5.90;99.90
6690;DHT22;3382;51.576;8.076;2023-02-28T16:59:12;6.00;99.90
6690;DHT22;3382;51.576;8.076;2023-02-28T17:01:38;6.50;99.90
6690;DHT22;3382;51.576;8.076;2023-02-28T17:04:03;6.30;99.90
6690;DHT22;3382;51.576;8.076;2023-02-28T17:06:30;6.20;99.90
6690;DHT22;3382;51.576;8.076;2023-02-28T17:08:57;6.00;99.90
6690;DHT22;3382;51.576;8.076;2023-02-28T17:11:24;5.80;99.90
6690;DHT22;3382;51.576;8.076;2023-02-28T17:13:50;5.80;99.90
6690;DHT22;3382;51.576;8.076;2023-02-28T17:16:30;5.70;99.90
6690;DHT22;3382;51.576;8.076;2023-02-28T17:19:04;5.60;99.90
6690;DHT22;3382;51.576;8.076;2023-02-28T17:21:31;5.60;99.90
6690;DHT22;3382;51.576;8.076;2023-02-28T17:23:57;5.50;99.90
6690;DHT22;3382;51.576;8.076;2023-02-28T17:26:24;5.70;99.90
6690;DHT22;3382;51.576;8.076;2023-02-28T17:28:51;5.70;99.90
6690;DHT22;3382;51.576;8.076;2023-02-28T17:31:17;5.40;99.90
6690;DHT22;3382;51.576;8.076;2023-02-28T17:33:44;5.30;99.90
6690;DHT22;3382;51.576;8.076;2023-02-28T17:36:14;5.30;99.90
6690;DHT22;3382;51.576;8.076;2023-02-28T17:38:40;5.30;99.90
6690;DHT22;3382;51.576;8.076;2023-02-28T17:41:07;5.10;99.90
6690;DHT22;3382;51.576;8.076;2023-02-28T17:43:33;5.10;99.90
6690;DHT22;3382;51.576;8.076;2023-02-28T17:45:58;5.10;99.90
6690;DHT22;3382;51.576;8.076;2023-02-28T17:48:25;5.00;99.90
6690;DHT22;3382;51.576;8.076;2023-02-28T17:50:50;4.90;99.90
6690;DHT22;3382;51.576;8.076;2023-02-28T17:53:16;4.90;99.90
6690;DHT22;3382;51.576;8.076;2023-02-28T17:55:42;4.90;99.90
6690;DHT22;3382;51.576;8.076;2023-02-28T17:58:10;5.40;99.90
6690;DHT22;3382;51.576;8.076;2023-02-28T18:00:37;4.80;99.90
6690;DHT22;3382;51.576;8.076;2023-02-28T18:03:03;4.70;99.90
6690;DHT22;3382;51.576;8.076;2023-02-28T18:05:29;4.70;99.90
6690;DHT22;3382;51.576;8.076;2023-02-28T18:07:55;4.60;99.90
6690;DHT22;3382;51.576;8.076;2023-02-28T18:10:21;4.50;99.90
6690;DHT22;3382;51.576;8.076;2023-02-28T18:12:49;4.50;99.90
6690;DHT22;3382;51.576;8.076;2023-02-28T18:15:17;4.40;99.90
6690;DHT22;3382;51.576;8.076;2023-02-28T18:17:45;4.40;99.90
6690;DHT22;3382;51.576;8.076;2023-02-28T18:20:11;4.30;99.90
6690;DHT22;3382;51.576;8.076;2023-02-28T18:22:38;4.20;99.90
6690;DHT22;3382;51.576;8.076;2023-02-28T18:25:05;4.20;99.90
6690;DHT22;3382;51.576;8.076;2023-02-28T18:27:30;4.10;99.90
6690;DHT22;3382;51.576;8.076;2023-02-28T18:29:56;4.10;99.90
6690;DHT22;3382;51.576;8.076;2023-02-28T18:32:21;4.10;99.90
6690;DHT22;3382;51.576;8.076;2023-02-28T18:34:47;4.10;99.90
6690;DHT22;3382;51.576;8.076;2023-02-28T18:37:13;4.10;99.90
6690;DHT22;3382;51.576;8.076;2023-02-28T18:39:40;4.00;99.90
6690;DHT22;3382;51.576;8.076;2023-02-28T18:42:06;4.00;99.90
6690;DHT22;3382;51.576;8.076;2023-02-28T18:44:33;4.00;99.90
6690;DHT22;3382;51.576;8.076;2023-02-28T18:46:58;4.00;99.90
6690;DHT22;3382;51.576;8.076;2023-02-28T18:49:24;4.20;99.90
6690;DHT22;3382;51.576;8.076;2023-02-28T18:51:50;3.90;99.90
6690;DHT22;3382;51.576;8.076;2023-02-28T18:54:16;3.90;99.90
6690;DHT22;3382;51.576;8.076;2023-02-28T18:56:42;3.80;99.90
6690;DHT22;3382;51.576;8.076;2023-02-28T18:59:08;3.80;99.90
6690;DHT22;3382;51.576;8.076;2023-02-28T19:01:33;3.70;99.90
6690;DHT22;3382;51.576;8.076;2023-02-28T19:04:00;3.60;99.90